Terminal Aerodrome Forecast
Issued by NWS Sioux Falls, SD

Home | Current Version | Previous Version | Text Only | Print | Product List | Glossary On
Versions: 1 2 3 4 5 6 7 8 9 10 11 12 13 14 15 16 17 18 19 20 21 22 23 24 25 26
000
FTUS43 KFSD 230520
TAFSUX
TAF
KSUX 230520Z 2306/2406 12007KT P6SM OVC060
     FM231200 13010KT P6SM OVC050
     FM232000 14014KT P6SM OVC040
      TEMPO 2321/2401 -SHRA
     FM240100 12009KT P6SM -SHRA OVC025=

USA.gov is the U.S. government's official web portal to all federal, state and local government web resources and services.